Time;durP1;ratioP1;P1;durP2;ratioP2;P2;SDS_P1;SDS_P2;PMS_P1;PMS_P2;Temp;Humidity;BMP_temperature;BMP_pressure;BME280_temperature;BME280_humidity;BME280_pressure;Samples;Min_cycle;Max_cycle;Signal;HPM_P1;HPM_P2
2020/12/25 00:01:55;;;;;;;1.00;0.70;;;3.80;1.00;;;;;;4872589;29;20488;-72
2020/12/25 00:04:23;;;;;;;0.63;0.63;;;3.90;1.00;;;;;;4870395;29;20631;-70
2020/12/25 00:06:50;;;;;;;0.98;0.88;;;3.80;1.00;;;;;;4870708;29;20374;-71
2020/12/25 00:09:18;;;;;;;1.00;0.77;;;3.80;1.00;;;;;;4872227;29;20269;-72
2020/12/25 00:11:46;;;;;;;0.70;0.63;;;3.80;1.00;;;;;;4872334;29;20317;-71
2020/12/25 00:14:14;;;;;;;0.77;0.65;;;3.80;1.00;;;;;;4871017;29;20599;-71
2020/12/25 00:16:42;;;;;;;1.33;0.80;;;3.90;1.00;;;;;;4868858;29;20590;-72
2020/12/25 00:19:10;;;;;;;0.57;0.55;;;3.90;1.00;;;;;;4871609;29;20227;-72
2020/12/25 00:21:38;;;;;;;1.15;0.75;;;3.90;1.00;;;;;;4866831;29;20324;-71
2020/12/25 00:24:06;;;;;;;1.10;0.90;;;4.00;1.00;;;;;;4861997;29;20519;-71
2020/12/25 00:26:34;;;;;;;0.70;0.70;;;4.00;1.00;;;;;;4870252;29;20220;-74
2020/12/25 00:29:03;;;;;;;0.68;0.60;;;4.00;1.00;;;;;;4867790;29;20728;-72
2020/12/25 00:31:31;;;;;;;0.68;0.60;;;4.00;1.00;;;;;;4871848;29;20254;-71
2020/12/25 00:33:59;;;;;;;0.80;0.70;;;4.00;1.00;;;;;;4872666;29;20238;-72
2020/12/25 00:36:28;;;;;;;0.90;0.80;;;3.90;1.00;;;;;;4872877;29;20219;-72
2020/12/25 00:38:58;;;;;;;1.73;0.73;;;3.90;1.00;;;;;;4871966;29;20228;-70
2020/12/25 00:41:25;;;;;;;0.70;0.70;;;3.90;1.00;;;;;;4870102;29;20241;-71
2020/12/25 00:43:53;;;;;;;0.70;0.70;;;3.90;1.00;;;;;;4870413;29;20656;-72
2020/12/25 00:46:20;;;;;;;0.55;0.55;;;3.80;1.00;;;;;;4863349;29;20365;-72
2020/12/25 00:48:48;;;;;;;0.75;0.73;;;3.70;1.00;;;;;;4869402;29;20224;-71
2020/12/25 00:51:17;;;;;;;0.90;0.90;;;3.80;1.00;;;;;;4868695;29;20230;-73
2020/12/25 00:53:45;;;;;;;0.60;0.60;;;3.80;1.00;;;;;;4871099;29;20232;-74
2020/12/25 00:56:15;;;;;;;0.73;0.73;;;3.70;1.00;;;;;;4871906;29;20232;-72
2020/12/25 00:58:42;;;;;;;0.68;0.68;;;3.80;1.00;;;;;;4872495;29;20753;-72
2020/12/25 01:01:13;;;;;;;1.23;0.70;;;3.80;1.00;;;;;;4870439;29;20249;-72
2020/12/25 01:03:42;;;;;;;0.90;0.90;;;3.90;1.00;;;;;;4869434;29;20492;-71
2020/12/25 01:06:10;;;;;;;1.20;1.10;;;3.80;1.00;;;;;;4884795;29;20223;-72
2020/12/25 01:08:38;;;;;;;1.00;0.90;;;3.90;1.00;;;;;;4871397;29;20207;-73
2020/12/25 01:11:06;;;;;;;1.40;0.85;;;3.90;1.00;;;;;;4872927;29;20238;-71
2020/12/25 01:13:35;;;;;;;0.90;0.90;;;3.90;1.00;;;;;;4872490;29;20234;-72
2020/12/25 01:16:03;;;;;;;0.70;0.70;;;3.90;1.00;;;;;;4875392;29;20221;-72
2020/12/25 01:18:30;;;;;;;0.80;0.75;;;3.90;1.00;;;;;;4877786;29;20235;-72
2020/12/25 01:20:57;;;;;;;0.88;0.88;;;4.00;1.00;;;;;;4872226;29;20229;-72
2020/12/25 01:23:24;;;;;;;0.90;0.80;;;3.90;1.00;;;;;;4876230;29;20258;-72
2020/12/25 01:25:51;;;;;;;0.85;0.85;;;3.90;1.00;;;;;;4874158;29;20747;-72
2020/12/25 01:28:19;;;;;;;1.20;1.10;;;4.00;1.00;;;;;;4871727;29;20305;-73
2020/12/25 01:30:47;;;;;;;0.73;0.73;;;4.00;1.00;;;;;;4870512;29;20234;-73
2020/12/25 01:33:14;;;;;;;0.90;0.90;;;4.10;1.00;;;;;;4874620;29;20235;-72
2020/12/25 01:35:41;;;;;;;1.20;1.10;;;4.00;1.00;;;;;;4871281;29;20235;-72
2020/12/25 01:38:08;;;;;;;0.90;0.90;;;4.10;1.00;;;;;;4876040;29;20262;-72
2020/12/25 01:40:35;;;;;;;1.20;1.10;;;4.10;1.00;;;;;;4869486;29;20281;-72
2020/12/25 01:43:02;;;;;;;1.25;1.10;;;4.10;1.00;;;;;;4877198;29;20248;-73
2020/12/25 01:45:29;;;;;;;1.10;1.00;;;4.10;1.00;;;;;;4874536;29;20245;-72
2020/12/25 01:47:59;;;;;;;1.35;1.25;;;4.10;1.00;;;;;;4873649;29;20224;-73
2020/12/25 01:50:28;;;;;;;1.02;1.00;;;4.10;1.00;;;;;;4874748;29;20729;-72
2020/12/25 01:52:56;;;;;;;1.45;1.35;;;4.10;1.00;;;;;;4878014;29;20281;-72
2020/12/25 01:55:26;;;;;;;1.20;1.10;;;4.10;1.00;;;;;;4874477;29;20768;-71
2020/12/25 01:57:54;;;;;;;1.40;1.30;;;4.10;1.00;;;;;;4875047;29;20758;-72
2020/12/25 02:00:22;;;;;;;1.25;1.13;;;4.10;1.00;;;;;;4872848;29;20236;-71
2020/12/25 02:02:50;;;;;;;1.65;1.15;;;4.10;1.00;;;;;;4875333;29;20235;-72
2020/12/25 02:05:18;;;;;;;1.50;1.40;;;4.10;1.00;;;;;;4869943;29;20224;-72
2020/12/25 02:07:45;;;;;;;1.30;1.20;;;4.10;1.00;;;;;;4869986;29;20216;-71
2020/12/25 02:10:13;;;;;;;1.58;1.48;;;4.00;1.00;;;;;;4872964;29;20338;-72
2020/12/25 02:12:41;;;;;;;2.25;1.30;;;4.00;1.00;;;;;;4873140;29;20699;-72
2020/12/25 02:15:09;;;;;;;1.60;1.50;;;4.00;1.00;;;;;;4874719;29;20697;-72
2020/12/25 02:17:43;;;;;;;2.25;1.83;;;4.00;1.00;;;;;;4874042;29;20219;-74
2020/12/25 02:20:10;;;;;;;1.70;1.60;;;4.00;1.00;;;;;;4865911;29;20247;-72
2020/12/25 02:22:38;;;;;;;1.92;1.73;;;4.00;1.00;;;;;;4875138;29;20218;-71
2020/12/25 02:25:06;;;;;;;1.50;1.27;;;4.00;1.00;;;;;;4874976;29;20568;-73
2020/12/25 02:27:33;;;;;;;1.35;1.25;;;4.10;1.00;;;;;;4873026;29;20306;-71
2020/12/25 02:30:00;;;;;;;2.30;1.70;;;4.00;1.00;;;;;;4870213;29;20217;-71
2020/12/25 02:32:27;;;;;;;1.50;1.30;;;4.00;1.00;;;;;;4874037;29;20673;-71
2020/12/25 02:35:11;;;;;;;1.95;1.27;;;4.00;1.00;;;;;;4873733;29;20222;-71
2020/12/25 02:37:39;;;;;;;2.15;1.30;;;4.10;1.00;;;;;;4873622;29;20219;-72
2020/12/25 02:40:08;;;;;;;1.27;1.17;;;4.00;1.00;;;;;;4873465;29;20240;-72
2020/12/25 02:42:35;;;;;;;1.63;1.52;;;4.00;1.00;;;;;;4875213;29;20740;-71
2020/12/25 02:45:03;;;;;;;1.30;1.20;;;4.10;1.00;;;;;;4870397;29;20220;-73
2020/12/25 02:47:31;;;;;;;2.58;1.27;;;4.00;1.00;;;;;;4875999;29;20242;-72
2020/12/25 02:49:58;;;;;;;2.35;2.15;;;4.00;1.00;;;;;;4872519;29;20280;-71
2020/12/25 02:52:25;;;;;;;1.40;1.30;;;4.00;1.00;;;;;;4876088;29;20322;-72
2020/12/25 02:54:53;;;;;;;1.17;1.10;;;4.00;1.00;;;;;;4873496;29;20709;-72
2020/12/25 02:57:20;;;;;;;1.80;1.38;;;4.00;1.00;;;;;;4873039;29;20705;-73
2020/12/25 02:59:48;;;;;;;1.40;1.30;;;4.10;1.00;;;;;;4871623;29;20590;-72
2020/12/25 03:02:16;;;;;;;1.50;1.40;;;4.10;1.00;;;;;;4875004;29;20207;-72
2020/12/25 03:04:43;;;;;;;1.60;1.50;;;4.20;1.00;;;;;;4873431;29;20196;-73
2020/12/25 03:07:10;;;;;;;1.50;1.40;;;4.20;1.00;;;;;;4889329;29;20263;-72
2020/12/25 03:09:38;;;;;;;1.67;1.00;;;4.20;1.00;;;;;;4872777;29;20322;-72
2020/12/25 03:12:07;;;;;;;1.50;1.40;;;4.10;1.00;;;;;;4874828;29;20301;-69
2020/12/25 03:14:34;;;;;;;1.88;1.20;;;4.20;1.00;;;;;;4874707;29;20803;-73
2020/12/25 03:17:01;;;;;;;1.27;1.17;;;4.20;1.00;;;;;;4888309;29;20230;-72
2020/12/25 03:19:28;;;;;;;1.30;1.20;;;4.20;1.00;;;;;;4871644;29;20221;-72
2020/12/25 03:21:55;;;;;;;1.52;1.20;;;4.20;1.00;;;;;;4873786;29;20243;-71
2020/12/25 03:24:22;;;;;;;1.60;1.50;;;4.20;1.00;;;;;;4872202;29;20283;-71
2020/12/25 03:26:49;;;;;;;1.40;1.30;;;4.20;1.00;;;;;;4875153;29;20276;-73
2020/12/25 03:29:17;;;;;;;1.85;1.60;;;4.20;1.00;;;;;;4872034;29;20233;-72
2020/12/25 03:31:44;;;;;;;1.30;1.20;;;4.30;1.00;;;;;;4871366;29;20781;-71
2020/12/25 03:34:11;;;;;;;1.25;1.15;;;4.30;1.00;;;;;;4885374;29;20484;-72
2020/12/25 03:36:39;;;;;;;1.30;1.20;;;4.20;1.00;;;;;;4870115;29;20250;-72
2020/12/25 03:39:06;;;;;;;1.40;1.30;;;4.10;1.00;;;;;;4867780;29;20226;-71
2020/12/25 03:41:33;;;;;;;2.08;1.27;;;4.00;1.00;;;;;;4873708;29;20291;-74
2020/12/25 03:44:00;;;;;;;1.23;1.13;;;4.10;1.00;;;;;;4869918;29;20214;-72
2020/12/25 03:46:34;;;;;;;1.63;1.52;;;4.00;1.00;;;;;;4873354;29;20708;-72
2020/12/25 03:49:01;;;;;;;1.48;1.30;;;4.00;1.00;;;;;;4873417;29;20231;-74
2020/12/25 03:51:28;;;;;;;1.15;1.05;;;4.10;1.00;;;;;;4871280;29;20249;-72
2020/12/25 03:53:55;;;;;;;1.30;1.20;;;4.10;1.00;;;;;;4872758;29;20237;-72
2020/12/25 03:56:23;;;;;;;1.48;1.35;;;4.10;1.00;;;;;;4873558;29;20222;-71
2020/12/25 03:58:50;;;;;;;1.40;1.30;;;4.20;1.00;;;;;;4873798;29;20216;-73
2020/12/25 04:01:17;;;;;;;1.50;1.40;;;4.30;1.00;;;;;;4870910;29;20414;-72
2020/12/25 04:03:45;;;;;;;1.40;1.30;;;4.20;1.00;;;;;;4872573;29;20693;-72
2020/12/25 04:06:12;;;;;;;1.23;1.13;;;4.20;1.00;;;;;;4873303;29;20235;-73
2020/12/25 04:08:39;;;;;;;1.50;1.40;;;4.20;1.00;;;;;;4871754;29;20219;-72
2020/12/25 04:11:08;;;;;;;1.55;1.45;;;4.20;1.00;;;;;;4873821;29;20251;-72
2020/12/25 04:13:35;;;;;;;1.30;1.20;;;4.20;1.00;;;;;;4872008;29;20289;-72
2020/12/25 04:16:03;;;;;;;1.35;1.25;;;4.20;1.00;;;;;;4870753;29;20216;-72
2020/12/25 04:18:30;;;;;;;1.30;1.20;;;4.20;1.00;;;;;;4873747;29;20219;-71
2020/12/25 04:20:59;;;;;;;1.45;1.30;;;4.20;1.00;;;;;;4871283;29;20787;-71
2020/12/25 04:23:27;;;;;;;1.50;1.40;;;4.30;1.00;;;;;;4872419;29;20223;-74
2020/12/25 04:25:55;;;;;;;1.30;1.20;;;4.30;1.00;;;;;;4872945;29;20669;-71
2020/12/25 04:28:22;;;;;;;1.45;1.35;;;4.40;1.00;;;;;;4873638;29;20239;-71
2020/12/25 04:30:49;;;;;;;1.42;1.30;;;4.40;1.00;;;;;;4870999;29;20256;-73
2020/12/25 04:33:16;;;;;;;1.25;1.15;;;4.40;1.00;;;;;;4870498;29;20234;-72
2020/12/25 04:35:43;;;;;;;1.58;1.30;;;4.40;1.00;;;;;;4872281;29;20274;-73
2020/12/25 04:38:12;;;;;;;1.30;1.20;;;4.40;1.00;;;;;;4873120;29;20247;-72
2020/12/25 04:40:42;;;;;;;1.35;1.25;;;4.40;1.00;;;;;;4867620;29;20285;-72
2020/12/25 04:43:11;;;;;;;1.50;1.40;;;4.40;1.00;;;;;;4873012;29;20230;-73
2020/12/25 04:45:38;;;;;;;1.75;1.65;;;4.40;1.00;;;;;;4866384;29;20651;-72
2020/12/25 04:48:06;;;;;;;1.70;1.60;;;4.40;1.00;;;;;;4873211;29;20222;-71
2020/12/25 04:50:34;;;;;;;1.50;1.40;;;4.40;1.00;;;;;;4870058;29;20237;-72
2020/12/25 04:53:01;;;;;;;2.95;1.80;;;4.40;1.00;;;;;;4868979;29;20220;-72
2020/12/25 04:55:29;;;;;;;1.50;1.40;;;4.30;1.00;;;;;;4890045;29;20283;-71
2020/12/25 04:57:57;;;;;;;1.77;1.67;;;4.40;1.00;;;;;;4874572;29;20272;-71
2020/12/25 05:00:27;;;;;;;2.00;1.60;;;4.30;1.00;;;;;;4869160;29;20243;-72
2020/12/25 05:02:54;;;;;;;1.55;1.45;;;4.30;1.00;;;;;;4871979;29;20212;-71
2020/12/25 05:05:28;;;;;;;2.30;1.70;;;4.30;1.00;;;;;;4869446;29;20231;-72
2020/12/25 05:07:56;;;;;;;1.90;1.80;;;4.30;1.00;;;;;;4872566;29;20278;-73
2020/12/25 05:10:23;;;;;;;1.70;1.60;;;4.20;1.00;;;;;;4871559;29;20249;-71
2020/12/25 05:12:52;;;;;;;1.80;1.70;;;4.20;1.00;;;;;;4873346;29;20217;-72
2020/12/25 05:15:19;;;;;;;1.80;1.70;;;4.20;1.00;;;;;;4871502;29;20235;-73
2020/12/25 05:17:46;;;;;;;2.85;2.03;;;4.20;1.00;;;;;;4872796;29;20223;-72
2020/12/25 05:20:13;;;;;;;1.67;1.58;;;4.20;1.00;;;;;;4870782;29;20234;-72
2020/12/25 05:22:40;;;;;;;2.17;1.98;;;4.30;1.00;;;;;;4873945;29;20772;-73
2020/12/25 05:25:09;;;;;;;25.13;2.47;;;4.20;1.00;;;;;;4871358;29;20501;-72
2020/12/25 05:27:36;;;;;;;2.10;1.90;;;4.20;1.00;;;;;;4870486;29;20221;-72
2020/12/25 05:30:06;;;;;;;2.45;1.90;;;4.20;1.00;;;;;;4868623;29;20218;-73
2020/12/25 05:32:35;;;;;;;1.92;1.83;;;4.20;1.00;;;;;;4872052;29;20781;-74
2020/12/25 05:35:02;;;;;;;1.98;1.88;;;4.20;1.00;;;;;;4870352;29;20601;-72
2020/12/25 05:37:34;;;;;;;3.05;2.50;;;4.20;1.00;;;;;;4872372;29;20654;-72
2020/12/25 05:40:06;;;;;;;2.60;2.33;;;4.10;1.00;;;;;;4873075;29;20231;-72
2020/12/25 05:42:45;;;;;;;2.22;1.90;;;4.10;1.00;;;;;;4885210;29;20571;-71
2020/12/25 05:45:17;;;;;;;2.90;2.70;;;4.10;1.00;;;;;;4864219;29;20300;-72
2020/12/25 05:47:45;;;;;;;2.67;2.47;;;4.10;1.00;;;;;;4870510;29;20245;-72
2020/12/25 05:50:18;;;;;;;2.75;2.55;;;4.20;1.00;;;;;;4872380;29;20250;-73
2020/12/25 05:52:47;;;;;;;2.60;2.40;;;4.20;1.00;;;;;;4871430;29;20224;-71
2020/12/25 05:55:17;;;;;;;2.40;2.30;;;4.20;1.00;;;;;;4867595;29;20240;-71
2020/12/25 05:57:50;;;;;;;1.90;1.80;;;4.10;1.00;;;;;;4869343;29;20211;-71
2020/12/25 06:00:19;;;;;;;2.17;1.83;;;4.20;1.00;;;;;;4870073;29;20232;-72
2020/12/25 06:02:46;;;;;;;2.75;2.38;;;4.20;1.00;;;;;;4867809;29;20242;-71
2020/12/25 06:05:14;;;;;;;1.90;1.80;;;4.20;1.00;;;;;;4872420;29;20267;-73
2020/12/25 06:07:48;;;;;;;3.33;2.47;;;4.20;1.00;;;;;;4874414;29;20218;-72
2020/12/25 06:10:17;;;;;;;2.10;2.00;;;4.30;1.00;;;;;;4875604;29;20234;-73
2020/12/25 06:12:45;;;;;;;2.50;2.30;;;4.30;1.00;;;;;;4874946;29;20226;-71
2020/12/25 06:15:18;;;;;;;2.20;2.05;;;4.30;1.00;;;;;;4870996;29;20239;-71
2020/12/25 06:18:03;;;;;;;2.63;2.42;;;4.30;1.00;;;;;;4872471;29;20222;-73
2020/12/25 06:20:35;;;;;;;2.30;2.03;;;4.40;1.00;;;;;;4869991;29;20349;-72
2020/12/25 06:23:04;;;;;;;2.90;2.70;;;4.30;1.00;;;;;;4874938;29;20722;-74
2020/12/25 06:25:32;;;;;;;3.67;2.90;;;4.20;1.00;;;;;;4873915;29;20219;-72
2020/12/25 06:28:01;;;;;;;3.25;2.95;;;4.20;1.00;;;;;;4873458;29;20755;-73
2020/12/25 06:30:30;;;;;;;2.30;2.10;;;4.20;1.00;;;;;;4873024;29;20244;-72
2020/12/25 06:32:58;;;;;;;2.42;2.22;;;4.30;1.00;;;;;;4875071;29;20241;-72
2020/12/25 06:35:35;;;;;;;2.80;2.22;;;4.20;1.00;;;;;;4865251;29;20239;-72
2020/12/25 06:38:08;;;;;;;2.90;2.53;;;4.20;1.00;;;;;;4873355;29;20329;-72
2020/12/25 06:40:36;;;;;;;2.53;2.33;;;4.30;1.00;;;;;;4872746;29;20612;-72
2020/12/25 06:43:11;;;;;;;2.83;2.45;;;4.20;1.00;;;;;;4872595;29;20774;-74
2020/12/25 06:45:38;;;;;;;2.90;2.20;;;4.20;1.00;;;;;;4873663;29;20226;-72
2020/12/25 06:48:18;;;;;;;2.50;2.30;;;4.10;1.00;;;;;;4872419;29;20218;-72
2020/12/25 06:50:50;;;;;;;2.40;2.20;;;4.10;1.00;;;;;;4874567;29;20234;-73
2020/12/25 06:53:34;;;;;;;2.70;2.50;;;4.00;1.00;;;;;;4874979;29;20257;-72
2020/12/25 06:56:13;;;;;;;3.22;2.40;;;4.00;1.00;;;;;;4872396;29;20932;-73
2020/12/25 06:58:42;;;;;;;2.42;1.90;;;4.00;1.00;;;;;;4870543;29;20229;-72
2020/12/25 07:01:10;;;;;;;2.50;2.00;;;4.00;1.00;;;;;;4865338;29;20745;-73
2020/12/25 07:03:38;;;;;;;2.22;1.95;;;4.00;1.00;;;;;;4870865;29;20360;-72
2020/12/25 07:06:09;;;;;;;1.95;1.85;;;4.00;1.00;;;;;;4871123;29;20222;-72
2020/12/25 07:08:45;;;;;;;2.28;2.08;;;3.90;1.00;;;;;;4874013;29;20208;-71
2020/12/25 07:11:13;;;;;;;2.10;1.83;;;3.80;1.00;;;;;;4868088;29;20241;-72
2020/12/25 07:13:41;;;;;;;2.08;1.63;;;3.80;1.00;;;;;;4870104;29;20325;-72
2020/12/25 07:16:10;;;;;;;1.73;1.63;;;3.80;1.00;;;;;;4866060;29;20220;-70
2020/12/25 07:18:38;;;;;;;2.83;2.10;;;3.90;1.00;;;;;;4875182;29;20215;-72
2020/12/25 07:21:07;;;;;;;2.42;2.22;;;4.00;1.00;;;;;;4883805;29;20248;-72
2020/12/25 07:23:41;;;;;;;2.20;2.10;;;3.90;1.00;;;;;;4874584;29;20219;-72
2020/12/25 07:26:09;;;;;;;1.90;1.80;;;3.90;1.00;;;;;;4868479;29;20250;-73
2020/12/25 07:28:37;;;;;;;1.90;1.75;;;3.90;1.00;;;;;;4873566;29;20216;-70
2020/12/25 07:31:04;;;;;;;2.45;2.22;;;3.90;1.00;;;;;;4865680;29;20739;-72
2020/12/25 07:33:31;;;;;;;2.10;1.90;;;3.90;1.00;;;;;;4874914;29;20282;-75
2020/12/25 07:35:59;;;;;;;1.73;1.63;;;3.80;1.00;;;;;;4871580;29;20277;-75
2020/12/25 07:38:29;;;;;;;1.77;1.67;;;3.80;1.00;;;;;;4867167;29;20312;-72
2020/12/25 07:40:56;;;;;;;1.55;1.45;;;3.70;1.00;;;;;;4873578;29;20238;-72
2020/12/25 07:43:23;;;;;;;1.55;1.45;;;3.80;1.00;;;;;;4870482;29;20332;-71
2020/12/25 07:45:50;;;;;;;2.13;1.60;;;3.80;1.00;;;;;;4868886;29;20218;-72
2020/12/25 07:48:18;;;;;;;1.77;1.67;;;3.80;1.00;;;;;;4866495;29;20302;-70
2020/12/25 07:50:47;;;;;;;1.63;1.52;;;3.80;1.00;;;;;;4871703;29;20268;-72
2020/12/25 07:53:16;;;;;;;1.80;1.70;;;3.80;1.00;;;;;;4868590;29;20316;-73
2020/12/25 07:55:45;;;;;;;1.35;1.23;;;3.80;1.00;;;;;;4863889;29;20302;-72
2020/12/25 07:58:13;;;;;;;1.50;1.40;;;3.90;1.00;;;;;;4873091;29;20405;-71
2020/12/25 08:00:41;;;;;;;1.80;1.70;;;3.90;1.00;;;;;;4864126;29;20246;-71
2020/12/25 08:03:10;;;;;;;1.70;1.38;;;3.90;1.00;;;;;;4872757;29;20222;-73
2020/12/25 08:05:37;;;;;;;1.70;1.60;;;3.90;1.00;;;;;;4868068;29;20229;-71
2020/12/25 08:08:06;;;;;;;1.33;1.23;;;3.90;1.00;;;;;;4869119;29;20223;-73
2020/12/25 08:10:35;;;;;;;1.42;1.33;;;3.80;1.00;;;;;;4871370;29;20239;-73
2020/12/25 08:13:05;;;;;;;1.50;1.40;;;3.80;1.00;;;;;;4871383;29;20221;-73
2020/12/25 08:15:33;;;;;;;2.25;1.65;;;3.80;1.00;;;;;;4862240;29;20255;-72
2020/12/25 08:18:04;;;;;;;1.30;1.20;;;3.80;1.00;;;;;;4874086;29;20215;-71
2020/12/25 08:20:32;;;;;;;3.08;1.50;;;3.90;1.00;;;;;;4872673;29;20301;-70
2020/12/25 08:23:00;;;;;;;1.70;1.60;;;3.90;1.00;;;;;;4873645;29;20294;-70
2020/12/25 08:25:28;;;;;;;1.98;1.80;;;4.00;1.00;;;;;;4871069;29;20209;-75
2020/12/25 08:27:56;;;;;;;1.80;1.70;;;4.00;1.00;;;;;;4869186;29;20290;-75
2020/12/25 08:30:24;;;;;;;2.05;1.95;;;4.00;1.00;;;;;;4886633;29;20880;-76
2020/12/25 08:32:56;;;;;;;1.58;1.48;;;4.10;1.00;;;;;;4864846;29;20520;-71
2020/12/25 08:35:27;;;;;;;3.92;2.72;;;4.10;1.00;;;;;;4866157;29;21115;-70
2020/12/25 08:38:00;;;;;;;2.70;2.50;;;4.00;1.00;;;;;;4869783;29;20281;-75
2020/12/25 08:40:32;;;;;;;2.75;2.55;;;4.00;1.00;;;;;;4870672;29;20242;-65
2020/12/25 08:43:09;;;;;;;2.78;1.95;;;4.00;1.00;;;;;;4872342;29;20928;-66
2020/12/25 08:45:37;;;;;;;3.60;2.88;;;4.00;1.00;;;;;;4871872;29;20588;-73
2020/12/25 08:48:05;;;;;;;3.08;2.83;;;4.00;1.00;;;;;;4873402;29;20219;-71
2020/12/25 08:50:33;;;;;;;4.22;3.83;;;4.00;1.00;;;;;;4889088;29;20269;-71
2020/12/25 08:53:27;;;;;;;4.63;4.18;;;4.00;1.00;;;;;;4877896;29;20846;-72
2020/12/25 08:55:54;;;;;;;3.97;3.58;;;4.00;1.00;;;;;;4886079;29;20300;-71
2020/12/25 08:58:24;;;;;;;3.80;3.50;;;4.10;1.00;;;;;;4874061;29;20220;-72
2020/12/25 09:00:58;;;;;;;6.07;4.70;;;4.10;1.00;;;;;;4876022;29;20235;-72
2020/12/25 09:03:36;;;;;;;4.70;4.35;;;4.10;1.00;;;;;;4869910;29;20219;-76
2020/12/25 09:06:04;;;;;;;4.55;4.15;;;4.10;1.00;;;;;;4871889;29;20220;-75
2020/12/25 09:08:32;;;;;;;4.82;4.43;;;4.10;1.00;;;;;;4874815;29;20220;-72
2020/12/25 09:10:59;;;;;;;5.20;4.50;;;4.20;1.00;;;;;;4874447;29;20235;-72
2020/12/25 09:13:27;;;;;;;4.75;4.35;;;4.20;1.00;;;;;;4875865;29;20220;-72
2020/12/25 09:15:54;;;;;;;5.78;4.40;;;4.20;1.00;;;;;;4874541;29;20662;-71
2020/12/25 09:18:21;;;;;;;5.68;5.13;;;4.30;1.00;;;;;;4873742;29;20208;-71
2020/12/25 09:20:48;;;;;;;5.07;4.20;;;4.20;1.00;;;;;;4872990;29;21052;-71
2020/12/25 09:23:15;;;;;;;4.95;4.45;;;4.20;1.00;;;;;;4873544;29;20759;-73
2020/12/25 09:25:43;;;;;;;8.20;5.30;;;4.20;1.00;;;;;;4867987;29;20217;-72
2020/12/25 09:28:10;;;;;;;6.05;5.20;;;4.20;1.00;;;;;;4872444;29;20218;-70
2020/12/25 09:30:38;;;;;;;9.52;5.82;;;4.10;1.00;;;;;;4871808;29;20647;-71
2020/12/25 09:33:06;;;;;;;7.20;5.15;;;4.20;1.00;;;;;;4888484;29;20679;-72
2020/12/25 09:35:33;;;;;;;8.40;5.90;;;4.20;1.00;;;;;;4873805;29;20253;-73
2020/12/25 09:38:00;;;;;;;7.95;5.40;;;4.20;1.00;;;;;;4874829;29;20700;-72
2020/12/25 09:40:27;;;;;;;6.45;5.85;;;4.20;1.00;;;;;;4883998;29;20913;-72
2020/12/25 09:42:54;;;;;;;7.07;5.72;;;4.20;1.00;;;;;;4874344;29;20233;-77
2020/12/25 09:45:21;;;;;;;7.25;5.35;;;4.20;1.00;;;;;;4878478;29;20209;-75
2020/12/25 09:47:51;;;;;;;7.38;5.18;;;4.20;1.00;;;;;;4876203;29;20214;-72
2020/12/25 09:50:18;;;;;;;6.82;5.38;;;4.20;1.00;;;;;;4876917;29;20248;-74
2020/12/25 09:52:45;;;;;;;9.57;5.40;;;4.20;1.00;;;;;;4872374;29;20222;-76
2020/12/25 09:55:12;;;;;;;6.35;5.63;;;4.30;1.00;;;;;;4874161;29;20241;-74
2020/12/25 09:57:39;;;;;;;4.93;4.43;;;4.30;1.00;;;;;;4874884;29;20210;-75
2020/12/25 10:00:10;;;;;;;6.75;5.70;;;4.40;1.00;;;;;;4889124;29;20214;-76
2020/12/25 10:02:37;;;;;;;5.82;5.30;;;4.40;1.00;;;;;;4889466;29;20212;-73
2020/12/25 10:05:08;;;;;;;4.82;4.30;;;4.30;1.00;;;;;;4874826;29;21617;-75
2020/12/25 10:07:36;;;;;;;6.97;4.85;;;4.40;1.00;;;;;;4875331;29;20219;-73
2020/12/25 10:10:07;;;;;;;5.28;4.82;;;4.40;1.00;;;;;;4876164;29;20212;-71
2020/12/25 10:12:35;;;;;;;5.50;5.00;;;4.40;1.00;;;;;;4877284;29;20215;-73
2020/12/25 10:15:02;;;;;;;7.32;4.90;;;4.30;1.00;;;;;;4875923;29;20227;-73
2020/12/25 10:17:30;;;;;;;8.63;6.07;;;4.30;1.00;;;;;;4876409;29;20219;-74
2020/12/25 10:19:57;;;;;;;6.20;5.60;;;4.30;1.00;;;;;;4870399;29;20207;-74
2020/12/25 10:22:25;;;;;;;9.90;5.68;;;4.30;1.00;;;;;;4876228;29;20234;-74
2020/12/25 10:24:52;;;;;;;7.60;5.18;;;4.40;1.00;;;;;;4873081;29;20212;-74
2020/12/25 10:27:19;;;;;;;9.23;7.93;;;4.50;1.00;;;;;;4898802;29;20572;-73
2020/12/25 10:29:46;;;;;;;9.20;6.47;;;4.60;1.00;;;;;;4876363;29;20248;-76
2020/12/25 10:32:14;;;;;;;7.55;6.10;;;4.60;1.00;;;;;;4870056;29;20279;-74
2020/12/25 10:34:42;;;;;;;5.95;5.32;;;4.80;1.00;;;;;;4872418;29;20297;-74
2020/12/25 10:37:14;;;;;;;6.07;5.28;;;4.80;99.90;;;;;;4877651;29;20222;-76
2020/12/25 10:39:42;;;;;;;5.68;5.07;;;4.80;99.90;;;;;;4872154;29;20304;-75
2020/12/25 10:42:11;;;;;;;5.97;4.90;;;4.80;99.90;;;;;;4876014;29;20238;-74
2020/12/25 10:44:38;;;;;;;5.38;4.88;;;4.70;99.90;;;;;;4876133;29;20228;-76
2020/12/25 10:47:06;;;;;;;5.75;4.82;;;4.70;99.90;;;;;;4876696;29;20695;-74
2020/12/25 10:49:33;;;;;;;5.57;4.43;;;4.50;99.90;;;;;;4877635;29;20900;-74
2020/12/25 10:52:00;;;;;;;6.47;5.00;;;4.50;99.90;;;;;;4875443;29;20260;-75
2020/12/25 10:54:27;;;;;;;5.70;4.90;;;4.60;1.00;;;;;;4875670;29;20659;-75
2020/12/25 10:56:55;;;;;;;4.95;4.20;;;4.60;99.90;;;;;;4876528;29;20218;-74
2020/12/25 10:59:23;;;;;;;6.30;4.70;;;4.60;1.00;;;;;;4875648;29;20312;-76
2020/12/25 11:01:50;;;;;;;5.77;5.17;;;4.60;1.00;;;;;;4876628;29;20321;-74
2020/12/25 11:04:17;;;;;;;6.18;4.30;;;4.70;99.90;;;;;;4875923;29;20530;-75
2020/12/25 11:06:45;;;;;;;4.68;4.22;;;4.90;99.90;;;;;;4876978;29;20246;-76
2020/12/25 11:09:12;;;;;;;5.38;4.15;;;4.90;99.90;;;;;;4872291;29;20290;-76
2020/12/25 11:11:40;;;;;;;4.43;3.55;;;5.00;1.00;;;;;;4876522;29;20329;-77
2020/12/25 11:14:10;;;;;;;5.65;4.85;;;5.00;1.00;;;;;;4875353;29;20224;-76
2020/12/25 11:16:39;;;;;;;3.53;3.22;;;5.00;1.00;;;;;;4874793;29;20648;-76
2020/12/25 11:19:08;;;;;;;4.72;3.95;;;5.00;1.00;;;;;;4870074;29;20222;-75
2020/12/25 11:21:36;;;;;;;4.15;3.58;;;5.00;1.00;;;;;;4868605;29;20248;-74
2020/12/25 11:24:04;;;;;;;4.55;4.15;;;5.20;99.90;;;;;;4873192;29;20224;-76
2020/12/25 11:26:33;;;;;;;3.83;3.45;;;5.30;99.90;;;;;;4873916;29;20215;-76
2020/12/25 11:29:02;;;;;;;4.05;2.90;;;5.20;15.20;;;;;;4871588;29;20217;-76
2020/12/25 11:31:33;;;;;;;4.70;3.55;;;5.20;99.90;;;;;;4873511;29;20321;-77
2020/12/25 11:34:00;;;;;;;3.90;3.10;;;5.20;1.00;;;;;;4867448;29;20223;-78
2020/12/25 11:36:32;;;;;;;4.28;3.28;;;5.20;99.90;;;;;;4879154;29;20205;-73
2020/12/25 11:38:59;;;;;;;4.10;2.85;;;5.20;99.90;;;;;;4874570;29;20211;-79
2020/12/25 11:41:27;;;;;;;5.07;3.75;;;5.10;1.00;;;;;;4870964;29;20249;-72
2020/12/25 11:43:55;;;;;;;4.82;3.75;;;5.10;1.00;;;;;;4868002;29;20217;-73
2020/12/25 11:46:23;;;;;;;5.23;4.73;;;5.20;99.90;;;;;;4873783;29;20290;-73
2020/12/25 11:48:53;;;;;;;4.20;3.72;;;5.20;1.00;;;;;;4876980;29;20898;-75
2020/12/25 11:51:22;;;;;;;4.15;3.50;;;5.20;36.20;;;;;;4873582;29;20342;-73
2020/12/25 11:53:50;;;;;;;4.75;4.25;;;5.50;99.90;;;;;;4873058;29;20679;-74
2020/12/25 11:56:21;;;;;;;4.13;3.67;;;6.20;1.00;;;;;;4874766;29;20257;-74
2020/12/25 11:58:49;;;;;;;3.40;3.20;;;6.90;99.90;;;;;;4873266;29;20562;-73
2020/12/25 12:01:16;;;;;;;7.30;3.30;;;7.40;1.00;;;;;;4869912;29;20492;-74
2020/12/25 12:03:44;;;;;;;4.37;3.80;;;7.40;1.00;;;;;;4864886;29;20520;-73
2020/12/25 12:06:18;;;;;;;3.60;3.30;;;7.30;1.00;;;;;;4864018;29;20475;-74
2020/12/25 12:08:45;;;;;;;5.37;2.67;;;7.00;99.90;;;;;;4870616;29;20528;-74
2020/12/25 12:11:25;;;;;;;6.43;3.03;;;6.70;1.00;;;;;;4878380;29;20577;-73
2020/12/25 12:13:53;;;;;;;4.33;2.90;;;6.60;1.00;;;;;;4864499;29;20553;-74
2020/12/25 12:16:21;;;;;;;3.20;2.90;;;6.70;1.00;;;;;;4869644;29;20553;-73
2020/12/25 12:18:50;;;;;;;4.83;3.20;;;6.90;1.00;;;;;;4868246;29;20954;-73
2020/12/25 12:21:18;;;;;;;3.37;2.97;;;6.80;1.00;;;;;;4869222;29;20501;-73
2020/12/25 12:23:46;;;;;;;5.90;3.57;;;6.70;1.00;;;;;;4862361;29;20598;-72
2020/12/25 12:26:13;;;;;;;3.83;3.47;;;6.60;99.90;;;;;;4863397;29;20535;-73
2020/12/25 12:28:40;;;;;;;5.60;3.20;;;6.40;1.00;;;;;;4865985;29;21191;-73
2020/12/25 12:31:08;;;;;;;5.27;3.47;;;6.30;1.00;;;;;;4865037;29;20501;-74
2020/12/25 12:33:35;;;;;;;2.80;2.60;;;6.20;94.50;;;;;;4868050;29;20473;-75
2020/12/25 12:36:03;;;;;;;3.43;3.13;;;6.20;1.00;;;;;;4865942;29;20869;-72
2020/12/25 12:38:31;;;;;;;3.90;3.60;;;6.10;99.90;;;;;;4864868;29;20470;-73
2020/12/25 12:40:58;;;;;;;3.37;3.00;;;6.00;99.90;;;;;;4866791;29;20500;-74
2020/12/25 12:43:26;;;;;;;3.00;2.23;;;5.80;99.90;;;;;;4869046;29;20526;-74
2020/12/25 12:45:53;;;;;;;2.42;2.22;;;5.70;1.00;;;;;;4869294;29;20596;-73
2020/12/25 12:48:20;;;;;;;2.70;2.27;;;5.70;99.90;;;;;;4866492;29;20204;-72
2020/12/25 12:50:49;;;;;;;2.43;2.20;;;5.60;99.90;;;;;;4863398;29;20535;-73
2020/12/25 12:53:16;;;;;;;2.60;2.33;;;5.40;99.90;;;;;;4863653;29;21008;-74
2020/12/25 12:55:44;;;;;;;3.10;2.10;;;5.30;99.90;;;;;;4866714;29;21065;-73
2020/12/25 12:58:12;;;;;;;4.40;2.33;;;5.30;1.00;;;;;;4884231;29;20645;-73
2020/12/25 13:00:55;;;;;;;2.07;1.87;;;5.20;1.00;;;;;;4867961;29;20602;-72
2020/12/25 13:03:22;;;;;;;3.90;2.47;;;5.00;1.00;;;;;;4872098;29;20545;-73
2020/12/25 13:05:51;;;;;;;3.00;1.85;;;5.00;99.90;;;;;;4873388;29;20685;-73
2020/12/25 13:08:19;;;;;;;12.52;6.55;;;5.00;99.90;;;;;;4871435;29;20308;-73
2020/12/25 13:10:47;;;;;;;6.68;4.88;;;4.80;99.90;;;;;;4872839;29;20738;-73
2020/12/25 13:13:14;;;;;;;5.00;3.97;;;4.70;99.90;;;;;;4877944;29;20222;-73